sensor_id;sensor_type;location;lat;lon;timestamp;P1;durP1;ratioP1;P2;durP2;ratioP2
5898;SDS011;2975;50.956;6.962;2023-07-31T00:02:16;6.30;;;2.73;;
5898;SDS011;2975;50.956;6.962;2023-07-31T00:04:42;5.70;;;2.30;;
5898;SDS011;2975;50.956;6.962;2023-07-31T00:07:08;5.70;;;2.53;;
5898;SDS011;2975;50.956;6.962;2023-07-31T00:09:33;4.70;;;2.67;;
5898;SDS011;2975;50.956;6.962;2023-07-31T00:11:59;7.73;;;2.57;;
5898;SDS011;2975;50.956;6.962;2023-07-31T00:14:24;6.90;;;2.83;;
5898;SDS011;2975;50.956;6.962;2023-07-31T00:16:50;6.90;;;2.37;;
5898;SDS011;2975;50.956;6.962;2023-07-31T00:19:16;6.57;;;2.70;;
5898;SDS011;2975;50.956;6.962;2023-07-31T00:21:41;7.60;;;2.97;;
5898;SDS011;2975;50.956;6.962;2023-07-31T00:24:07;4.53;;;2.63;;
5898;SDS011;2975;50.956;6.962;2023-07-31T00:26:33;6.80;;;3.00;;
5898;SDS011;2975;50.956;6.962;2023-07-31T00:28:58;7.50;;;2.77;;
5898;SDS011;2975;50.956;6.962;2023-07-31T00:31:24;8.03;;;2.70;;
5898;SDS011;2975;50.956;6.962;2023-07-31T00:33:49;5.30;;;2.67;;
5898;SDS011;2975;50.956;6.962;2023-07-31T00:36:15;2.33;;;2.00;;
5898;SDS011;2975;50.956;6.962;2023-07-31T00:38:40;5.60;;;2.63;;
5898;SDS011;2975;50.956;6.962;2023-07-31T00:41:06;6.60;;;2.50;;
5898;SDS011;2975;50.956;6.962;2023-07-31T00:43:31;5.50;;;2.90;;
5898;SDS011;2975;50.956;6.962;2023-07-31T00:45:57;4.33;;;2.40;;
5898;SDS011;2975;50.956;6.962;2023-07-31T00:48:23;7.17;;;2.47;;
5898;SDS011;2975;50.956;6.962;2023-07-31T00:50:48;5.67;;;2.73;;
5898;SDS011;2975;50.956;6.962;2023-07-31T00:53:15;7.27;;;2.80;;
5898;SDS011;2975;50.956;6.962;2023-07-31T00:55:40;6.40;;;3.17;;
5898;SDS011;2975;50.956;6.962;2023-07-31T00:58:07;5.17;;;2.40;;
5898;SDS011;2975;50.956;6.962;2023-07-31T01:00:33;4.73;;;2.67;;
5898;SDS011;2975;50.956;6.962;2023-07-31T01:02:58;3.53;;;2.33;;
5898;SDS011;2975;50.956;6.962;2023-07-31T01:05:36;5.73;;;2.67;;
5898;SDS011;2975;50.956;6.962;2023-07-31T01:08:23;4.03;;;2.20;;
5898;SDS011;2975;50.956;6.962;2023-07-31T01:11:05;4.87;;;2.40;;
5898;SDS011;2975;50.956;6.962;2023-07-31T01:13:37;5.30;;;2.53;;
5898;SDS011;2975;50.956;6.962;2023-07-31T01:16:03;4.33;;;2.53;;
5898;SDS011;2975;50.956;6.962;2023-07-31T01:18:29;5.93;;;3.20;;
5898;SDS011;2975;50.956;6.962;2023-07-31T01:26:47;4.50;;;2.50;;
5898;SDS011;2975;50.956;6.962;2023-07-31T01:29:38;7.10;;;2.97;;
5898;SDS011;2975;50.956;6.962;2023-07-31T01:32:12;4.43;;;2.43;;
5898;SDS011;2975;50.956;6.962;2023-07-31T01:34:38;3.57;;;2.60;;
5898;SDS011;2975;50.956;6.962;2023-07-31T01:37:06;5.20;;;3.10;;
5898;SDS011;2975;50.956;6.962;2023-07-31T01:39:31;3.80;;;2.33;;
5898;SDS011;2975;50.956;6.962;2023-07-31T01:41:57;7.20;;;2.23;;
5898;SDS011;2975;50.956;6.962;2023-07-31T01:44:23;4.87;;;2.07;;
5898;SDS011;2975;50.956;6.962;2023-07-31T01:46:48;5.83;;;2.37;;
5898;SDS011;2975;50.956;6.962;2023-07-31T01:49:14;5.43;;;2.37;;
5898;SDS011;2975;50.956;6.962;2023-07-31T01:51:39;4.53;;;2.30;;
5898;SDS011;2975;50.956;6.962;2023-07-31T01:54:05;5.07;;;2.67;;
5898;SDS011;2975;50.956;6.962;2023-07-31T01:56:31;6.87;;;2.93;;
5898;SDS011;2975;50.956;6.962;2023-07-31T01:58:56;4.23;;;2.13;;
5898;SDS011;2975;50.956;6.962;2023-07-31T02:01:22;6.93;;;2.30;;
5898;SDS011;2975;50.956;6.962;2023-07-31T02:03:48;7.23;;;2.83;;
5898;SDS011;2975;50.956;6.962;2023-07-31T02:06:14;6.30;;;2.30;;
5898;SDS011;2975;50.956;6.962;2023-07-31T02:08:39;5.63;;;2.57;;
5898;SDS011;2975;50.956;6.962;2023-07-31T02:11:05;4.47;;;2.60;;
5898;SDS011;2975;50.956;6.962;2023-07-31T02:13:31;5.80;;;2.37;;
5898;SDS011;2975;50.956;6.962;2023-07-31T02:15:57;3.27;;;2.20;;
5898;SDS011;2975;50.956;6.962;2023-07-31T02:18:22;6.30;;;2.10;;
5898;SDS011;2975;50.956;6.962;2023-07-31T02:20:49;6.67;;;2.27;;
5898;SDS011;2975;50.956;6.962;2023-07-31T02:23:15;4.80;;;2.27;;
5898;SDS011;2975;50.956;6.962;2023-07-31T02:25:43;5.30;;;2.17;;
5898;SDS011;2975;50.956;6.962;2023-07-31T02:28:09;4.57;;;2.20;;
5898;SDS011;2975;50.956;6.962;2023-07-31T02:30:35;4.87;;;2.50;;
5898;SDS011;2975;50.956;6.962;2023-07-31T02:33:00;5.97;;;3.10;;
5898;SDS011;2975;50.956;6.962;2023-07-31T02:35:26;4.50;;;2.43;;
5898;SDS011;2975;50.956;6.962;2023-07-31T02:37:52;4.43;;;2.50;;
5898;SDS011;2975;50.956;6.962;2023-07-31T02:40:17;5.97;;;2.30;;
5898;SDS011;2975;50.956;6.962;2023-07-31T02:42:43;4.63;;;2.60;;
5898;SDS011;2975;50.956;6.962;2023-07-31T02:45:08;6.57;;;2.80;;
5898;SDS011;2975;50.956;6.962;2023-07-31T02:47:34;5.13;;;2.37;;
5898;SDS011;2975;50.956;6.962;2023-07-31T02:50:00;6.57;;;2.73;;
5898;SDS011;2975;50.956;6.962;2023-07-31T02:52:29;6.07;;;2.33;;
5898;SDS011;2975;50.956;6.962;2023-07-31T02:54:55;6.13;;;2.30;;
5898;SDS011;2975;50.956;6.962;2023-07-31T02:57:22;7.70;;;3.10;;
5898;SDS011;2975;50.956;6.962;2023-07-31T02:59:47;7.23;;;2.70;;
5898;SDS011;2975;50.956;6.962;2023-07-31T03:02:13;6.33;;;2.90;;
5898;SDS011;2975;50.956;6.962;2023-07-31T03:04:39;5.17;;;2.50;;
5898;SDS011;2975;50.956;6.962;2023-07-31T03:07:04;6.20;;;2.43;;
5898;SDS011;2975;50.956;6.962;2023-07-31T03:09:30;5.63;;;2.53;;
5898;SDS011;2975;50.956;6.962;2023-07-31T03:11:56;3.87;;;2.40;;
5898;SDS011;2975;50.956;6.962;2023-07-31T03:14:21;4.90;;;2.80;;
5898;SDS011;2975;50.956;6.962;2023-07-31T03:16:47;6.40;;;2.93;;
5898;SDS011;2975;50.956;6.962;2023-07-31T03:19:13;5.43;;;2.83;;
5898;SDS011;2975;50.956;6.962;2023-07-31T03:21:39;6.03;;;2.83;;
5898;SDS011;2975;50.956;6.962;2023-07-31T03:24:05;5.53;;;2.37;;
5898;SDS011;2975;50.956;6.962;2023-07-31T03:26:31;6.90;;;2.67;;
5898;SDS011;2975;50.956;6.962;2023-07-31T03:28:57;6.40;;;2.60;;
5898;SDS011;2975;50.956;6.962;2023-07-31T03:31:22;8.87;;;3.27;;
5898;SDS011;2975;50.956;6.962;2023-07-31T03:33:48;4.50;;;2.73;;
5898;SDS011;2975;50.956;6.962;2023-07-31T03:36:13;5.23;;;2.80;;
5898;SDS011;2975;50.956;6.962;2023-07-31T03:38:39;7.23;;;2.80;;
5898;SDS011;2975;50.956;6.962;2023-07-31T03:41:04;7.13;;;2.80;;
5898;SDS011;2975;50.956;6.962;2023-07-31T03:43:31;5.77;;;2.77;;
5898;SDS011;2975;50.956;6.962;2023-07-31T03:45:58;9.37;;;2.60;;
5898;SDS011;2975;50.956;6.962;2023-07-31T03:48:25;8.73;;;2.87;;
5898;SDS011;2975;50.956;6.962;2023-07-31T03:50:50;6.57;;;2.70;;
5898;SDS011;2975;50.956;6.962;2023-07-31T03:53:16;6.40;;;3.13;;
5898;SDS011;2975;50.956;6.962;2023-07-31T03:55:41;6.17;;;2.83;;
5898;SDS011;2975;50.956;6.962;2023-07-31T03:58:07;5.67;;;2.83;;
5898;SDS011;2975;50.956;6.962;2023-07-31T04:00:32;8.20;;;3.13;;
5898;SDS011;2975;50.956;6.962;2023-07-31T04:02:58;4.57;;;2.97;;
5898;SDS011;2975;50.956;6.962;2023-07-31T04:05:24;6.93;;;3.10;;
5898;SDS011;2975;50.956;6.962;2023-07-31T04:07:49;4.43;;;2.80;;
5898;SDS011;2975;50.956;6.962;2023-07-31T04:10:15;7.20;;;3.03;;
5898;SDS011;2975;50.956;6.962;2023-07-31T04:12:41;6.63;;;3.27;;
5898;SDS011;2975;50.956;6.962;2023-07-31T04:15:06;6.77;;;3.07;;
5898;SDS011;2975;50.956;6.962;2023-07-31T04:17:32;9.03;;;3.80;;
5898;SDS011;2975;50.956;6.962;2023-07-31T04:19:58;7.40;;;3.03;;
5898;SDS011;2975;50.956;6.962;2023-07-31T04:22:23;6.70;;;3.70;;
5898;SDS011;2975;50.956;6.962;2023-07-31T04:24:49;5.90;;;3.00;;
5898;SDS011;2975;50.956;6.962;2023-07-31T04:27:14;6.53;;;3.20;;
5898;SDS011;2975;50.956;6.962;2023-07-31T04:29:40;6.33;;;3.20;;
5898;SDS011;2975;50.956;6.962;2023-07-31T04:32:07;9.67;;;3.23;;
5898;SDS011;2975;50.956;6.962;2023-07-31T04:34:33;6.57;;;2.70;;
5898;SDS011;2975;50.956;6.962;2023-07-31T04:36:58;9.70;;;3.50;;
5898;SDS011;2975;50.956;6.962;2023-07-31T04:39:24;6.33;;;3.27;;
5898;SDS011;2975;50.956;6.962;2023-07-31T04:41:50;6.67;;;3.43;;
5898;SDS011;2975;50.956;6.962;2023-07-31T04:44:15;7.17;;;3.00;;
5898;SDS011;2975;50.956;6.962;2023-07-31T04:46:41;6.47;;;3.33;;
5898;SDS011;2975;50.956;6.962;2023-07-31T04:49:06;4.37;;;3.03;;
5898;SDS011;2975;50.956;6.962;2023-07-31T04:51:32;5.13;;;3.13;;
5898;SDS011;2975;50.956;6.962;2023-07-31T04:53:57;5.90;;;2.70;;
5898;SDS011;2975;50.956;6.962;2023-07-31T04:56:23;5.30;;;3.20;;
5898;SDS011;2975;50.956;6.962;2023-07-31T04:58:48;6.10;;;3.00;;
5898;SDS011;2975;50.956;6.962;2023-07-31T05:01:14;5.30;;;3.10;;
5898;SDS011;2975;50.956;6.962;2023-07-31T05:03:40;7.57;;;3.00;;
5898;SDS011;2975;50.956;6.962;2023-07-31T05:06:05;4.23;;;3.43;;
5898;SDS011;2975;50.956;6.962;2023-07-31T05:08:31;6.20;;;2.97;;
5898;SDS011;2975;50.956;6.962;2023-07-31T05:10:56;4.60;;;3.30;;
5898;SDS011;2975;50.956;6.962;2023-07-31T05:13:22;4.77;;;2.77;;
5898;SDS011;2975;50.956;6.962;2023-07-31T05:15:48;6.57;;;3.47;;
5898;SDS011;2975;50.956;6.962;2023-07-31T05:18:14;8.23;;;3.13;;
5898;SDS011;2975;50.956;6.962;2023-07-31T05:20:40;6.27;;;3.00;;
5898;SDS011;2975;50.956;6.962;2023-07-31T05:23:06;4.07;;;2.60;;
5898;SDS011;2975;50.956;6.962;2023-07-31T05:25:32;7.37;;;2.80;;
5898;SDS011;2975;50.956;6.962;2023-07-31T05:27:57;2.97;;;2.43;;
5898;SDS011;2975;50.956;6.962;2023-07-31T05:30:23;6.00;;;2.97;;
5898;SDS011;2975;50.956;6.962;2023-07-31T05:32:49;6.27;;;2.87;;
5898;SDS011;2975;50.956;6.962;2023-07-31T05:35:14;6.37;;;2.83;;
5898;SDS011;2975;50.956;6.962;2023-07-31T05:37:40;5.43;;;2.90;;
5898;SDS011;2975;50.956;6.962;2023-07-31T05:40:06;4.20;;;3.23;;
5898;SDS011;2975;50.956;6.962;2023-07-31T05:42:32;5.37;;;2.70;;
5898;SDS011;2975;50.956;6.962;2023-07-31T05:44:57;5.17;;;2.37;;
5898;SDS011;2975;50.956;6.962;2023-07-31T05:47:23;5.43;;;3.17;;
5898;SDS011;2975;50.956;6.962;2023-07-31T05:49:49;5.93;;;3.00;;
5898;SDS011;2975;50.956;6.962;2023-07-31T05:52:17;5.60;;;3.27;;
5898;SDS011;2975;50.956;6.962;2023-07-31T05:54:43;8.23;;;3.23;;
5898;SDS011;2975;50.956;6.962;2023-07-31T05:57:09;6.57;;;3.00;;
5898;SDS011;2975;50.956;6.962;2023-07-31T05:59:34;7.90;;;5.77;;
5898;SDS011;2975;50.956;6.962;2023-07-31T06:02:00;9.40;;;4.80;;
5898;SDS011;2975;50.956;6.962;2023-07-31T06:04:25;8.00;;;4.23;;
5898;SDS011;2975;50.956;6.962;2023-07-31T06:06:51;5.73;;;2.80;;
5898;SDS011;2975;50.956;6.962;2023-07-31T06:09:17;5.87;;;2.60;;
5898;SDS011;2975;50.956;6.962;2023-07-31T06:11:42;4.77;;;2.50;;
5898;SDS011;2975;50.956;6.962;2023-07-31T06:14:08;6.37;;;3.50;;
5898;SDS011;2975;50.956;6.962;2023-07-31T06:16:35;5.47;;;3.37;;
5898;SDS011;2975;50.956;6.962;2023-07-31T06:19:01;8.27;;;3.80;;
5898;SDS011;2975;50.956;6.962;2023-07-31T06:21:26;7.03;;;3.40;;
5898;SDS011;2975;50.956;6.962;2023-07-31T06:23:52;7.07;;;3.53;;
5898;SDS011;2975;50.956;6.962;2023-07-31T06:26:18;6.43;;;3.90;;
5898;SDS011;2975;50.956;6.962;2023-07-31T06:28:43;5.73;;;2.83;;
5898;SDS011;2975;50.956;6.962;2023-07-31T06:31:09;5.27;;;3.23;;
5898;SDS011;2975;50.956;6.962;2023-07-31T06:33:35;5.47;;;3.27;;
5898;SDS011;2975;50.956;6.962;2023-07-31T06:36:00;5.73;;;3.97;;
5898;SDS011;2975;50.956;6.962;2023-07-31T06:38:26;4.93;;;3.17;;
5898;SDS011;2975;50.956;6.962;2023-07-31T06:40:52;9.67;;;3.27;;
5898;SDS011;2975;50.956;6.962;2023-07-31T06:43:18;8.73;;;3.30;;
5898;SDS011;2975;50.956;6.962;2023-07-31T06:45:44;8.00;;;3.90;;
5898;SDS011;2975;50.956;6.962;2023-07-31T06:48:10;7.27;;;3.17;;
5898;SDS011;2975;50.956;6.962;2023-07-31T06:50:36;6.50;;;2.67;;
5898;SDS011;2975;50.956;6.962;2023-07-31T06:53:02;6.00;;;3.20;;
5898;SDS011;2975;50.956;6.962;2023-07-31T06:55:27;6.47;;;3.33;;
5898;SDS011;2975;50.956;6.962;2023-07-31T06:57:53;3.50;;;2.77;;
5898;SDS011;2975;50.956;6.962;2023-07-31T07:00:20;4.47;;;2.80;;
5898;SDS011;2975;50.956;6.962;2023-07-31T07:02:47;5.13;;;3.00;;
5898;SDS011;2975;50.956;6.962;2023-07-31T07:05:13;3.67;;;3.00;;
5898;SDS011;2975;50.956;6.962;2023-07-31T07:07:40;8.37;;;3.83;;
5898;SDS011;2975;50.956;6.962;2023-07-31T07:10:05;6.30;;;3.73;;
5898;SDS011;2975;50.956;6.962;2023-07-31T07:12:32;7.47;;;3.47;;
5898;SDS011;2975;50.956;6.962;2023-07-31T07:14:58;6.30;;;3.03;;
5898;SDS011;2975;50.956;6.962;2023-07-31T07:17:24;5.60;;;2.97;;
5898;SDS011;2975;50.956;6.962;2023-07-31T07:19:51;6.50;;;3.33;;
5898;SDS011;2975;50.956;6.962;2023-07-31T07:22:17;3.17;;;2.50;;
5898;SDS011;2975;50.956;6.962;2023-07-31T07:24:43;6.17;;;2.93;;
5898;SDS011;2975;50.956;6.962;2023-07-31T07:27:08;5.70;;;3.30;;
5898;SDS011;2975;50.956;6.962;2023-07-31T07:29:34;4.77;;;2.80;;
5898;SDS011;2975;50.956;6.962;2023-07-31T07:32:00;5.33;;;3.23;;
5898;SDS011;2975;50.956;6.962;2023-07-31T07:34:26;6.10;;;3.00;;
5898;SDS011;2975;50.956;6.962;2023-07-31T07:36:53;4.53;;;2.83;;
5898;SDS011;2975;50.956;6.962;2023-07-31T07:39:18;6.83;;;3.40;;
5898;SDS011;2975;50.956;6.962;2023-07-31T07:41:45;6.33;;;3.13;;
5898;SDS011;2975;50.956;6.962;2023-07-31T07:44:11;7.47;;;3.20;;
5898;SDS011;2975;50.956;6.962;2023-07-31T07:46:37;5.57;;;3.00;;
5898;SDS011;2975;50.956;6.962;2023-07-31T07:49:03;3.97;;;2.80;;
5898;SDS011;2975;50.956;6.962;2023-07-31T07:51:28;5.40;;;2.77;;
5898;SDS011;2975;50.956;6.962;2023-07-31T07:53:55;5.93;;;2.73;;
5898;SDS011;2975;50.956;6.962;2023-07-31T07:56:21;7.30;;;3.57;;
5898;SDS011;2975;50.956;6.962;2023-07-31T07:58:50;8.57;;;3.07;;
5898;SDS011;2975;50.956;6.962;2023-07-31T08:01:16;6.60;;;3.07;;
5898;SDS011;2975;50.956;6.962;2023-07-31T08:03:42;6.53;;;3.13;;
5898;SDS011;2975;50.956;6.962;2023-07-31T08:06:07;6.23;;;3.13;;
5898;SDS011;2975;50.956;6.962;2023-07-31T08:08:36;9.10;;;3.47;;
5898;SDS011;2975;50.956;6.962;2023-07-31T08:11:03;5.93;;;2.60;;
5898;SDS011;2975;50.956;6.962;2023-07-31T08:13:29;5.37;;;2.80;;
5898;SDS011;2975;50.956;6.962;2023-07-31T08:15:54;6.90;;;3.43;;
5898;SDS011;2975;50.956;6.962;2023-07-31T08:18:20;4.67;;;2.37;;
5898;SDS011;2975;50.956;6.962;2023-07-31T08:20:46;3.17;;;2.33;;
5898;SDS011;2975;50.956;6.962;2023-07-31T08:23:11;6.10;;;2.40;;
5898;SDS011;2975;50.956;6.962;2023-07-31T08:25:37;4.90;;;3.00;;
5898;SDS011;2975;50.956;6.962;2023-07-31T08:28:03;5.07;;;2.27;;
5898;SDS011;2975;50.956;6.962;2023-07-31T08:30:29;5.50;;;2.10;;
5898;SDS011;2975;50.956;6.962;2023-07-31T08:32:55;5.57;;;2.20;;
5898;SDS011;2975;50.956;6.962;2023-07-31T08:35:21;4.83;;;2.20;;
5898;SDS011;2975;50.956;6.962;2023-07-31T08:37:47;6.07;;;2.70;;
5898;SDS011;2975;50.956;6.962;2023-07-31T08:40:12;5.27;;;2.67;;
5898;SDS011;2975;50.956;6.962;2023-07-31T08:42:45;3.83;;;2.33;;
5898;SDS011;2975;50.956;6.962;2023-07-31T08:45:17;6.67;;;2.93;;
5898;SDS011;2975;50.956;6.962;2023-07-31T08:47:47;3.97;;;2.83;;
5898;SDS011;2975;50.956;6.962;2023-07-31T08:50:15;3.00;;;2.27;;
5898;SDS011;2975;50.956;6.962;2023-07-31T08:52:42;4.17;;;2.40;;
5898;SDS011;2975;50.956;6.962;2023-07-31T08:55:08;5.47;;;2.20;;
5898;SDS011;2975;50.956;6.962;2023-07-31T08:57:35;5.37;;;2.67;;
5898;SDS011;2975;50.956;6.962;2023-07-31T09:00:02;4.60;;;2.63;;
5898;SDS011;2975;50.956;6.962;2023-07-31T09:02:41;4.33;;;2.27;;
5898;SDS011;2975;50.956;6.962;2023-07-31T09:05:28;5.37;;;2.63;;
5898;SDS011;2975;50.956;6.962;2023-07-31T09:07:55;8.00;;;2.87;;
5898;SDS011;2975;50.956;6.962;2023-07-31T09:10:21;7.83;;;2.73;;
5898;SDS011;2975;50.956;6.962;2023-07-31T09:12:48;7.17;;;3.37;;
5898;SDS011;2975;50.956;6.962;2023-07-31T09:15:16;9.27;;;2.80;;
5898;SDS011;2975;50.956;6.962;2023-07-31T09:17:42;4.63;;;2.57;;
5898;SDS011;2975;50.956;6.962;2023-07-31T09:20:14;5.70;;;2.70;;
5898;SDS011;2975;50.956;6.962;2023-07-31T09:22:45;4.73;;;2.20;;
5898;SDS011;2975;50.956;6.962;2023-07-31T09:25:15;3.40;;;2.53;;
5898;SDS011;2975;50.956;6.962;2023-07-31T09:27:48;4.33;;;2.17;;
5898;SDS011;2975;50.956;6.962;2023-07-31T09:30:24;8.10;;;2.50;;
5898;SDS011;2975;50.956;6.962;2023-07-31T09:32:50;2.60;;;2.10;;
5898;SDS011;2975;50.956;6.962;2023-07-31T09:35:21;3.53;;;2.17;;
5898;SDS011;2975;50.956;6.962;2023-07-31T09:37:53;4.10;;;2.40;;
5898;SDS011;2975;50.956;6.962;2023-07-31T09:42:56;3.40;;;2.00;;
5898;SDS011;2975;50.956;6.962;2023-07-31T09:45:34;3.47;;;1.93;;
5898;SDS011;2975;50.956;6.962;2023-07-31T09:48:01;5.67;;;2.13;;
5898;SDS011;2975;50.956;6.962;2023-07-31T09:50:27;4.67;;;2.50;;
5898;SDS011;2975;50.956;6.962;2023-07-31T09:52:54;5.17;;;2.37;;
5898;SDS011;2975;50.956;6.962;2023-07-31T09:55:20;4.20;;;2.03;;
5898;SDS011;2975;50.956;6.962;2023-07-31T09:57:46;3.83;;;2.20;;
5898;SDS011;2975;50.956;6.962;2023-07-31T10:00:14;2.87;;;2.20;;
5898;SDS011;2975;50.956;6.962;2023-07-31T10:02:45;2.45;;;1.90;;
5898;SDS011;2975;50.956;6.962;2023-07-31T10:05:12;5.80;;;2.53;;
5898;SDS011;2975;50.956;6.962;2023-07-31T10:07:41;2.90;;;2.30;;
5898;SDS011;2975;50.956;6.962;2023-07-31T10:10:10;4.22;;;2.60;;
5898;SDS011;2975;50.956;6.962;2023-07-31T10:12:36;5.00;;;2.88;;
5898;SDS011;2975;50.956;6.962;2023-07-31T10:15:03;4.85;;;2.50;;
5898;SDS011;2975;50.956;6.962;2023-07-31T10:17:30;4.28;;;2.50;;
5898;SDS011;2975;50.956;6.962;2023-07-31T10:19:57;4.35;;;2.38;;
5898;SDS011;2975;50.956;6.962;2023-07-31T10:22:26;5.00;;;2.47;;
5898;SDS011;2975;50.956;6.962;2023-07-31T10:24:52;5.32;;;2.28;;
5898;SDS011;2975;50.956;6.962;2023-07-31T10:27:20;3.67;;;2.08;;
5898;SDS011;2975;50.956;6.962;2023-07-31T10:29:46;4.10;;;2.00;;
5898;SDS011;2975;50.956;6.962;2023-07-31T10:32:13;3.60;;;2.20;;
5898;SDS011;2975;50.956;6.962;2023-07-31T10:34:40;3.07;;;2.17;;
5898;SDS011;2975;50.956;6.962;2023-07-31T10:40:04;4.85;;;2.10;;
5898;SDS011;2975;50.956;6.962;2023-07-31T10:45:02;5.47;;;2.03;;
5898;SDS011;2975;50.956;6.962;2023-07-31T10:47:39;8.07;;;2.03;;
5898;SDS011;2975;50.956;6.962;2023-07-31T10:50:22;2.60;;;2.00;;
5898;SDS011;2975;50.956;6.962;2023-07-31T10:52:50;5.40;;;2.17;;
5898;SDS011;2975;50.956;6.962;2023-07-31T10:58:06;3.73;;;2.27;;
5898;SDS011;2975;50.956;6.962;2023-07-31T11:00:41;3.37;;;1.70;;
5898;SDS011;2975;50.956;6.962;2023-07-31T11:03:12;3.33;;;2.10;;
5898;SDS011;2975;50.956;6.962;2023-07-31T11:08:21;3.13;;;2.00;;
5898;SDS011;2975;50.956;6.962;2023-07-31T11:10:51;2.20;;;1.80;;
5898;SDS011;2975;50.956;6.962;2023-07-31T11:16:18;2.40;;;1.50;;
5898;SDS011;2975;50.956;6.962;2023-07-31T11:18:51;2.58;;;1.70;;
5898;SDS011;2975;50.956;6.962;2023-07-31T11:21:20;3.17;;;1.60;;
5898;SDS011;2975;50.956;6.962;2023-07-31T11:23:56;1.50;;;1.40;;
5898;SDS011;2975;50.956;6.962;2023-07-31T11:26:23;2.60;;;1.50;;
5898;SDS011;2975;50.956;6.962;2023-07-31T11:28:49;2.80;;;1.60;;
5898;SDS011;2975;50.956;6.962;2023-07-31T11:31:16;2.58;;;1.38;;
5898;SDS011;2975;50.956;6.962;2023-07-31T11:33:43;4.60;;;1.67;;
5898;SDS011;2975;50.956;6.962;2023-07-31T11:36:18;1.20;;;1.10;;
5898;SDS011;2975;50.956;6.962;2023-07-31T11:38:44;1.35;;;0.98;;
5898;SDS011;2975;50.956;6.962;2023-07-31T11:41:13;1.30;;;1.20;;
5898;SDS011;2975;50.956;6.962;2023-07-31T11:43:40;1.15;;;1.00;;
5898;SDS011;2975;50.956;6.962;2023-07-31T11:46:05;1.08;;;0.93;;
5898;SDS011;2975;50.956;6.962;2023-07-31T11:48:35;1.60;;;0.95;;
5898;SDS011;2975;50.956;6.962;2023-07-31T11:51:05;0.82;;;0.80;;
5898;SDS011;2975;50.956;6.962;2023-07-31T11:56:18;0.95;;;0.95;;
5898;SDS011;2975;50.956;6.962;2023-07-31T11:58:45;0.98;;;0.70;;
5898;SDS011;2975;50.956;6.962;2023-07-31T12:01:13;0.70;;;0.70;;
5898;SDS011;2975;50.956;6.962;2023-07-31T12:03:40;0.63;;;0.63;;
5898;SDS011;2975;50.956;6.962;2023-07-31T12:06:07;0.65;;;0.65;;
5898;SDS011;2975;50.956;6.962;2023-07-31T12:08:33;1.70;;;0.68;;
5898;SDS011;2975;50.956;6.962;2023-07-31T12:11:02;0.70;;;0.70;;
5898;SDS011;2975;50.956;6.962;2023-07-31T12:13:30;0.73;;;0.60;;
5898;SDS011;2975;50.956;6.962;2023-07-31T12:15:57;3.67;;;0.75;;
5898;SDS011;2975;50.956;6.962;2023-07-31T12:18:25;0.70;;;0.70;;
5898;SDS011;2975;50.956;6.962;2023-07-31T12:20:56;0.70;;;0.70;;
5898;SDS011;2975;50.956;6.962;2023-07-31T12:23:24;4.95;;;0.93;;
5898;SDS011;2975;50.956;6.962;2023-07-31T12:26:04;1.03;;;0.80;;
5898;SDS011;2975;50.956;6.962;2023-07-31T12:28:41;0.83;;;0.83;;
5898;SDS011;2975;50.956;6.962;2023-07-31T12:31:09;1.52;;;0.80;;
5898;SDS011;2975;50.956;6.962;2023-07-31T12:33:37;0.90;;;0.90;;
5898;SDS011;2975;50.956;6.962;2023-07-31T12:36:10;1.17;;;0.80;;
5898;SDS011;2975;50.956;6.962;2023-07-31T12:38:40;1.50;;;0.80;;
5898;SDS011;2975;50.956;6.962;2023-07-31T12:41:06;1.40;;;1.00;;
5898;SDS011;2975;50.956;6.962;2023-07-31T12:43:32;3.30;;;1.20;;
5898;SDS011;2975;50.956;6.962;2023-07-31T12:45:58;1.67;;;1.02;;
5898;SDS011;2975;50.956;6.962;2023-07-31T12:48:24;1.00;;;0.95;;
5898;SDS011;2975;50.956;6.962;2023-07-31T12:50:50;0.90;;;0.90;;
5898;SDS011;2975;50.956;6.962;2023-07-31T12:53:16;5.20;;;1.25;;
5898;SDS011;2975;50.956;6.962;2023-07-31T12:55:41;3.10;;;1.30;;
5898;SDS011;2975;50.956;6.962;2023-07-31T12:58:07;3.00;;;1.42;;
5898;SDS011;2975;50.956;6.962;2023-07-31T13:00:33;7.88;;;1.80;;
5898;SDS011;2975;50.956;6.962;2023-07-31T13:02:59;2.47;;;1.67;;
5898;SDS011;2975;50.956;6.962;2023-07-31T13:05:25;4.38;;;1.52;;
5898;SDS011;2975;50.956;6.962;2023-07-31T13:07:51;6.80;;;2.05;;
5898;SDS011;2975;50.956;6.962;2023-07-31T13:10:17;5.20;;;2.03;;
5898;SDS011;2975;50.956;6.962;2023-07-31T13:12:42;1.70;;;1.60;;
5898;SDS011;2975;50.956;6.962;2023-07-31T13:15:08;4.97;;;1.70;;
5898;SDS011;2975;50.956;6.962;2023-07-31T13:17:35;8.55;;;1.92;;
5898;SDS011;2975;50.956;6.962;2023-07-31T13:20:02;4.25;;;2.00;;
5898;SDS011;2975;50.956;6.962;2023-07-31T13:22:29;4.90;;;2.00;;
5898;SDS011;2975;50.956;6.962;2023-07-31T13:24:55;3.35;;;1.75;;
5898;SDS011;2975;50.956;6.962;2023-07-31T13:27:22;5.10;;;1.92;;
5898;SDS011;2975;50.956;6.962;2023-07-31T13:29:49;6.07;;;2.08;;
5898;SDS011;2975;50.956;6.962;2023-07-31T13:32:18;14.20;;;3.05;;
5898;SDS011;2975;50.956;6.962;2023-07-31T13:34:45;2.83;;;1.90;;
5898;SDS011;2975;50.956;6.962;2023-07-31T13:37:11;2.10;;;1.90;;
5898;SDS011;2975;50.956;6.962;2023-07-31T13:39:38;2.17;;;1.80;;
5898;SDS011;2975;50.956;6.962;2023-07-31T13:42:04;3.33;;;1.60;;
5898;SDS011;2975;50.956;6.962;2023-07-31T13:44:33;2.30;;;2.03;;
5898;SDS011;2975;50.956;6.962;2023-07-31T13:47:02;2.15;;;1.88;;
5898;SDS011;2975;50.956;6.962;2023-07-31T13:49:28;2.15;;;1.90;;
5898;SDS011;2975;50.956;6.962;2023-07-31T13:51:55;2.17;;;1.52;;
5898;SDS011;2975;50.956;6.962;2023-07-31T13:54:21;2.85;;;1.65;;
5898;SDS011;2975;50.956;6.962;2023-07-31T13:56:47;2.60;;;1.88;;
5898;SDS011;2975;50.956;6.962;2023-07-31T13:59:13;2.08;;;1.85;;
5898;SDS011;2975;50.956;6.962;2023-07-31T14:01:41;3.85;;;2.00;;
5898;SDS011;2975;50.956;6.962;2023-07-31T14:04:06;1.80;;;1.70;;
5898;SDS011;2975;50.956;6.962;2023-07-31T14:06:32;5.60;;;2.13;;
5898;SDS011;2975;50.956;6.962;2023-07-31T14:08:58;2.15;;;1.80;;
5898;SDS011;2975;50.956;6.962;2023-07-31T14:11:23;2.60;;;1.83;;
5898;SDS011;2975;50.956;6.962;2023-07-31T14:13:50;3.63;;;2.15;;
5898;SDS011;2975;50.956;6.962;2023-07-31T14:16:16;3.03;;;1.98;;
5898;SDS011;2975;50.956;6.962;2023-07-31T14:18:42;2.83;;;2.00;;
5898;SDS011;2975;50.956;6.962;2023-07-31T14:21:08;2.72;;;1.92;;
5898;SDS011;2975;50.956;6.962;2023-07-31T14:23:33;4.38;;;1.90;;
5898;SDS011;2975;50.956;6.962;2023-07-31T14:25:59;3.05;;;2.08;;
5898;SDS011;2975;50.956;6.962;2023-07-31T14:28:25;5.90;;;2.72;;
5898;SDS011;2975;50.956;6.962;2023-07-31T14:30:50;4.75;;;2.00;;
5898;SDS011;2975;50.956;6.962;2023-07-31T14:33:16;3.08;;;2.00;;
5898;SDS011;2975;50.956;6.962;2023-07-31T14:35:41;6.13;;;2.10;;
5898;SDS011;2975;50.956;6.962;2023-07-31T14:38:07;5.50;;;2.55;;
5898;SDS011;2975;50.956;6.962;2023-07-31T14:40:32;3.05;;;2.28;;
5898;SDS011;2975;50.956;6.962;2023-07-31T14:42:58;4.88;;;3.03;;
5898;SDS011;2975;50.956;6.962;2023-07-31T14:45:25;4.70;;;2.53;;
5898;SDS011;2975;50.956;6.962;2023-07-31T14:47:51;4.15;;;2.00;;
5898;SDS011;2975;50.956;6.962;2023-07-31T14:50:16;4.40;;;2.38;;
5898;SDS011;2975;50.956;6.962;2023-07-31T14:52:42;5.10;;;1.98;;
5898;SDS011;2975;50.956;6.962;2023-07-31T14:55:07;3.95;;;2.03;;
5898;SDS011;2975;50.956;6.962;2023-07-31T14:57:34;4.45;;;2.75;;
5898;SDS011;2975;50.956;6.962;2023-07-31T15:00:00;3.35;;;2.50;;
5898;SDS011;2975;50.956;6.962;2023-07-31T15:02:26;5.03;;;2.78;;
5898;SDS011;2975;50.956;6.962;2023-07-31T15:04:52;3.97;;;2.13;;
5898;SDS011;2975;50.956;6.962;2023-07-31T15:07:18;5.97;;;2.58;;
5898;SDS011;2975;50.956;6.962;2023-07-31T15:09:43;4.45;;;2.60;;
5898;SDS011;2975;50.956;6.962;2023-07-31T15:12:09;9.63;;;2.97;;
5898;SDS011;2975;50.956;6.962;2023-07-31T15:14:35;13.63;;;3.20;;
5898;SDS011;2975;50.956;6.962;2023-07-31T15:17:01;11.40;;;3.17;;
5898;SDS011;2975;50.956;6.962;2023-07-31T15:19:26;4.00;;;2.65;;
5898;SDS011;2975;50.956;6.962;2023-07-31T15:21:52;6.55;;;2.70;;
5898;SDS011;2975;50.956;6.962;2023-07-31T15:24:17;11.50;;;3.50;;
5898;SDS011;2975;50.956;6.962;2023-07-31T15:26:43;10.00;;;2.63;;
5898;SDS011;2975;50.956;6.962;2023-07-31T15:29:09;7.90;;;3.30;;
5898;SDS011;2975;50.956;6.962;2023-07-31T15:31:36;10.23;;;3.80;;
5898;SDS011;2975;50.956;6.962;2023-07-31T15:34:04;6.00;;;2.80;;
5898;SDS011;2975;50.956;6.962;2023-07-31T15:36:31;5.80;;;3.17;;
5898;SDS011;2975;50.956;6.962;2023-07-31T15:38:56;5.87;;;2.77;;